createdAt,value
2016-05-07T00:00:33.952Z,0
2016-05-07T00:01:33.783Z,0
2016-05-07T00:02:33.957Z,0
2016-05-07T00:03:33.960Z,0
2016-05-07T00:04:33.947Z,0
2016-05-07T00:05:33.794Z,0
2016-05-07T00:06:33.968Z,0
2016-05-07T00:07:33.815Z,0
2016-05-07T00:08:33.942Z,0
2016-05-07T00:09:33.820Z,0
2016-05-07T00:10:33.963Z,0
2016-05-07T00:11:33.951Z,0
2016-05-07T00:12:34.063Z,0
2016-05-07T00:13:33.971Z,0
2016-05-07T00:14:33.959Z,0
2016-05-07T00:15:33.961Z,0
2016-05-07T00:16:33.948Z,0
2016-05-07T00:17:33.951Z,0
2016-05-07T00:18:33.641Z,0
2016-05-07T00:19:33.972Z,0
2016-05-07T00:20:33.960Z,0
2016-05-07T00:21:33.962Z,0
2016-05-07T00:22:33.965Z,0
2016-05-07T00:23:33.982Z,0
2016-05-07T00:24:33.970Z,0
2016-05-07T00:25:33.973Z,0
2016-05-07T00:26:33.976Z,0
2016-05-07T00:27:34.431Z,0
2016-05-07T00:28:33.949Z,0
2016-05-07T00:29:33.967Z,0
2016-05-07T00:30:33.971Z,0
2016-05-07T00:31:33.973Z,0
2016-05-07T00:32:33.820Z,0
2016-05-07T00:33:33.978Z,0
2016-05-07T00:34:33.965Z,0
2016-05-07T00:35:33.968Z,0
2016-05-07T00:36:33.970Z,0
2016-05-07T00:37:33.834Z,0
2016-05-07T00:38:33.820Z,0
2016-05-07T00:39:33.979Z,0
2016-05-07T00:40:33.981Z,0
2016-05-07T00:41:34.422Z,0
2016-05-07T00:42:33.971Z,0
2016-05-07T00:43:33.974Z,0
2016-05-07T00:44:33.977Z,0
2016-05-07T00:45:33.995Z,0
2016-05-07T00:46:33.810Z,0
2016-05-07T00:47:33.969Z,0
2016-05-07T00:48:33.988Z,0
2016-05-07T00:49:33.974Z,0
2016-05-07T00:50:33.821Z,0
2016-05-07T00:51:33.980Z,0
2016-05-07T00:52:33.982Z,0
2016-05-07T00:53:33.829Z,0
2016-05-07T00:54:33.847Z,0
2016-05-07T00:55:33.975Z,0
2016-05-07T00:56:33.994Z,0
2016-05-07T00:57:34.417Z,0
2016-05-07T00:58:33.983Z,0
2016-05-07T00:59:33.970Z,0
2016-05-07T01:00:33.973Z,0
2016-05-07T01:01:33.819Z,0
2016-05-07T01:02:33.978Z,0
2016-05-07T01:03:33.825Z,0
2016-05-07T01:04:33.999Z,0
2016-05-07T01:05:33.815Z,0
2016-05-07T01:06:33.817Z,0
2016-05-07T01:07:33.851Z,0
2016-05-07T01:08:33.978Z,0
2016-05-07T01:09:33.981Z,0
2016-05-07T01:10:33.687Z,0
2016-05-07T01:11:33.987Z,0
2016-05-07T01:12:34.442Z,0
2016-05-07T01:13:33.836Z,0
2016-05-07T01:14:33.995Z,0
2016-05-07T01:15:33.997Z,0
2016-05-07T01:16:33.985Z,0
2016-05-07T01:17:33.988Z,0
2016-05-07T01:18:33.833Z,0
2016-05-07T01:19:33.821Z,0
2016-05-07T01:20:33.838Z,0
2016-05-07T01:21:33.983Z,0
2016-05-07T01:22:33.829Z,0
2016-05-07T01:23:33.832Z,0
2016-05-07T01:24:33.990Z,0
2016-05-07T01:25:33.994Z,0
2016-05-07T01:26:33.995Z,0
2016-05-07T01:27:33.702Z,0
2016-05-07T01:28:34.064Z,0
2016-05-07T01:29:34.004Z,0
2016-05-07T01:30:34.006Z,0
2016-05-07T01:31:33.994Z,0
2016-05-07T01:32:33.840Z,0
2016-05-07T01:33:33.999Z,0
2016-05-07T01:34:34.002Z,0
2016-05-07T01:35:33.989Z,0
2016-05-07T01:36:33.992Z,0
2016-05-07T01:37:34.009Z,0
2016-05-07T01:38:33.997Z,0
2016-05-07T01:39:33.984Z,0
2016-05-07T01:40:34.003Z,0
2016-05-07T01:41:34.045Z,0
2016-05-07T01:42:34.020Z,0
2016-05-07T01:43:34.008Z,0
2016-05-07T01:44:33.882Z,0
2016-05-07T01:45:33.837Z,0
2016-05-07T01:46:34.012Z,0
2016-05-07T01:47:33.999Z,0
2016-05-07T01:48:34.001Z,0
2016-05-07T01:49:34.003Z,0
2016-05-07T01:50:34.007Z,0
2016-05-07T01:51:33.681Z,0
2016-05-07T01:52:33.855Z,0
2016-05-07T01:53:34.125Z,0
2016-05-07T01:54:34.002Z,0
2016-05-07T01:55:33.989Z,0
2016-05-07T01:56:33.836Z,0
2016-05-07T01:57:35.713Z,0
2016-05-07T01:58:33.997Z,0
2016-05-07T01:59:34.000Z,0
2016-05-07T02:00:33.986Z,0
2016-05-07T02:01:34.005Z,0
2016-05-07T02:02:34.008Z,0
2016-05-07T02:03:33.682Z,0
2016-05-07T02:04:33.857Z,0
2016-05-07T02:05:34.000Z,0
2016-05-07T02:06:33.988Z,0
2016-05-07T02:07:33.990Z,0
2016-05-07T02:08:33.993Z,0
2016-05-07T02:09:33.995Z,0
2016-05-07T02:10:34.013Z,0
2016-05-07T02:11:34.001Z,0
2016-05-07T02:12:33.879Z,0
2016-05-07T02:13:33.849Z,0
2016-05-07T02:14:34.009Z,0
2016-05-07T02:15:34.011Z,0
2016-05-07T02:16:33.999Z,0
2016-05-07T02:17:34.017Z,0
2016-05-07T02:18:33.863Z,0
2016-05-07T02:19:33.990Z,0
2016-05-07T02:20:34.009Z,0
2016-05-07T02:21:33.995Z,0
2016-05-07T02:22:33.999Z,0
2016-05-07T02:23:34.017Z,0
2016-05-07T02:24:34.007Z,0
2016-05-07T02:25:34.010Z,0
2016-05-07T02:26:33.840Z,0
2016-05-07T02:27:33.875Z,0
2016-05-07T02:28:33.862Z,0
2016-05-07T02:29:33.849Z,0
2016-05-07T02:30:33.992Z,0
2016-05-07T02:31:33.838Z,0
2016-05-07T02:32:34.013Z,0
2016-05-07T02:33:33.845Z,0
2016-05-07T02:34:34.003Z,0
2016-05-07T02:35:34.022Z,0
2016-05-07T02:36:33.992Z,0
2016-05-07T02:37:34.010Z,0
2016-05-07T02:38:33.858Z,0
2016-05-07T02:39:34.033Z,0
2016-05-07T02:40:33.847Z,0
2016-05-07T02:41:34.022Z,0
2016-05-07T02:42:34.399Z,0
2016-05-07T02:43:33.996Z,0
2016-05-07T02:44:34.014Z,0
2016-05-07T02:45:34.002Z,0
2016-05-07T02:46:34.004Z,0
2016-05-07T02:47:34.007Z,0
2016-05-07T02:48:34.009Z,0
2016-05-07T02:49:33.996Z,0
2016-05-07T02:50:33.999Z,0
2016-05-07T02:51:33.862Z,0
2016-05-07T02:52:34.004Z,0
2016-05-07T02:53:33.867Z,0
2016-05-07T02:54:33.995Z,0
2016-05-07T02:55:33.872Z,0
2016-05-07T02:56:34.015Z,0
2016-05-07T02:57:34.315Z,0
2016-05-07T02:58:34.005Z,0
2016-05-07T02:59:34.008Z,0
2016-05-07T03:00:33.839Z,0
2016-05-07T03:01:34.013Z,0
2016-05-07T03:02:34.016Z,0
2016-05-07T03:03:33.862Z,0
2016-05-07T03:04:33.865Z,0
2016-05-07T03:05:34.024Z,0
2016-05-07T03:06:33.855Z,0
2016-05-07T03:07:33.997Z,0
2016-05-07T03:08:33.875Z,0
2016-05-07T03:09:34.003Z,0
2016-05-07T03:10:33.991Z,0
2016-05-07T03:11:33.852Z,0
2016-05-07T03:12:34.386Z,0
2016-05-07T03:13:33.998Z,0
2016-05-07T03:14:34.002Z,0
2016-05-07T03:15:34.004Z,0
2016-05-07T03:16:34.007Z,0
2016-05-07T03:17:34.009Z,0
2016-05-07T03:18:34.012Z,0
2016-05-07T03:19:33.998Z,0
2016-05-07T03:20:34.018Z,0
2016-05-07T03:21:34.004Z,4
2016-05-07T03:22:33.991Z,4
2016-05-07T03:23:34.009Z,0
2016-05-07T03:24:33.997Z,4
2016-05-07T03:25:33.703Z,4
2016-05-07T03:26:34.018Z,4
2016-05-07T03:27:34.192Z,4
2016-05-07T03:28:34.007Z,4
2016-05-07T03:29:34.009Z,4
2016-05-07T03:30:33.857Z,4
2016-05-07T03:31:34.000Z,4
2016-05-07T03:32:34.003Z,8
2016-05-07T03:33:33.849Z,12
2016-05-07T03:34:33.681Z,16
2016-05-07T03:35:33.839Z,16
2016-05-07T03:36:33.998Z,16
2016-05-07T03:37:34.000Z,20
2016-05-07T03:38:34.003Z,24
2016-05-07T03:39:34.005Z,28
2016-05-07T03:40:34.025Z,28
2016-05-07T03:41:34.011Z,36
2016-05-07T03:42:33.888Z,40
2016-05-07T03:43:34.001Z,48
2016-05-07T03:44:34.019Z,52
2016-05-07T03:45:34.007Z,60
2016-05-07T03:46:34.010Z,68
2016-05-07T03:47:33.871Z,80
2016-05-07T03:48:33.999Z,88
2016-05-07T03:49:34.018Z,100
2016-05-07T03:50:33.863Z,108
2016-05-07T03:51:34.007Z,120
2016-05-07T03:52:33.868Z,136
2016-05-07T03:53:34.012Z,148
2016-05-07T03:54:34.031Z,164
2016-05-07T03:55:33.845Z,180
2016-05-07T03:56:34.021Z,192
2016-05-07T03:57:35.085Z,208
2016-05-07T03:58:34.010Z,228
2016-05-07T03:59:34.012Z,248
2016-05-07T04:00:33.843Z,268
2016-05-07T04:01:34.003Z,284
2016-05-07T04:02:33.989Z,304
2016-05-07T04:03:33.851Z,324
2016-05-07T04:04:33.854Z,348
2016-05-07T04:05:34.061Z,372
2016-05-07T04:06:33.844Z,396
2016-05-07T04:07:34.003Z,420
2016-05-07T04:08:34.006Z,444
2016-05-07T04:09:34.008Z,472
2016-05-07T04:10:34.011Z,500
2016-05-07T04:11:34.014Z,532
2016-05-07T04:12:33.985Z,560
2016-05-07T04:13:34.019Z,592
2016-05-07T04:14:33.850Z,620
2016-05-07T04:15:33.696Z,652
2016-05-07T04:16:33.996Z,692
2016-05-07T04:17:34.014Z,748
2016-05-07T04:18:33.846Z,804
2016-05-07T04:19:34.019Z,832
2016-05-07T04:20:34.022Z,840
2016-05-07T04:21:34.009Z,868
2016-05-07T04:22:33.996Z,908
2016-05-07T04:23:33.859Z,952
2016-05-07T04:24:34.002Z,996
2016-05-07T04:25:33.832Z,1044
2016-05-07T04:26:34.007Z,1092
2016-05-07T04:27:33.870Z,1140
2016-05-07T04:28:34.012Z,1192
2016-05-07T04:29:34.000Z,1244
2016-05-07T04:30:33.862Z,1428
2016-05-07T04:31:34.020Z,1688
2016-05-07T04:32:33.851Z,2548
2016-05-07T04:33:33.698Z,2716
2016-05-07T04:34:33.997Z,2816
2016-05-07T04:35:34.001Z,3044
2016-05-07T04:36:34.003Z,2776
2016-05-07T04:37:33.989Z,1868
2016-05-07T04:38:33.993Z,1652
2016-05-07T04:39:33.995Z,1684
2016-05-07T04:40:33.841Z,1736
2016-05-07T04:41:33.985Z,1784
2016-05-07T04:42:34.286Z,1836
2016-05-07T04:43:34.006Z,1884
2016-05-07T04:44:33.993Z,1936
2016-05-07T04:45:34.011Z,1988
2016-05-07T04:46:38.983Z,2036
2016-05-07T04:47:34.017Z,2104
2016-05-07T04:48:33.863Z,2148
2016-05-07T04:49:34.022Z,2264
2016-05-07T04:50:33.697Z,3076
2016-05-07T04:51:33.699Z,5432
2016-05-07T04:52:33.858Z,6896
2016-05-07T04:53:34.032Z,6976
2016-05-07T04:54:34.004Z,7208
2016-05-07T04:55:34.007Z,7484
2016-05-07T04:56:33.713Z,7860
2016-05-07T04:57:34.621Z,7988
2016-05-07T04:58:34.015Z,8264
2016-05-07T04:59:34.018Z,8760
2016-05-07T05:00:34.005Z,8964
2016-05-07T05:01:34.023Z,9028
2016-05-07T05:02:33.854Z,9320
2016-05-07T05:03:34.012Z,9708
2016-05-07T05:04:34.016Z,9492
2016-05-07T05:05:33.847Z,10060
2016-05-07T05:06:34.020Z,10672
2016-05-07T05:07:34.023Z,10968
2016-05-07T05:08:33.870Z,11192
2016-05-07T05:09:34.029Z,11560
2016-05-07T05:10:34.032Z,11808
2016-05-07T05:11:33.722Z,12048
2016-05-07T05:12:33.881Z,12284
2016-05-07T05:13:34.024Z,11868
2016-05-07T05:14:34.027Z,11944
2016-05-07T05:15:33.717Z,12848
2016-05-07T05:16:34.033Z,13176
2016-05-07T05:17:34.050Z,13716
2016-05-07T05:18:34.038Z,13916
2016-05-07T05:19:33.885Z,14004
2016-05-07T05:20:34.043Z,14196
2016-05-07T05:21:34.062Z,14096
2016-05-07T05:22:34.049Z,14232
2016-05-07T05:23:33.895Z,15040
2016-05-07T05:24:34.054Z,15392
2016-05-07T05:25:34.057Z,15456
2016-05-07T05:26:33.901Z,15648
2016-05-07T05:27:33.762Z,15648
2016-05-07T05:28:33.906Z,15776
2016-05-07T05:29:34.065Z,16320
2016-05-07T05:30:33.912Z,16352
2016-05-07T05:31:33.914Z,17344
2016-05-07T05:32:34.073Z,17952
2016-05-07T05:33:34.091Z,18592
2016-05-07T05:34:34.093Z,18624
2016-05-07T05:35:33.956Z,19584
2016-05-07T05:36:34.099Z,19936
2016-05-07T05:37:34.117Z,19936
2016-05-07T05:38:34.104Z,20608
2016-05-07T05:39:34.092Z,21824
2016-05-07T05:40:34.125Z,21952
2016-05-07T05:41:33.957Z,22560
2016-05-07T05:42:34.459Z,23008
2016-05-07T05:43:34.133Z,23584
2016-05-07T05:44:34.137Z,23456
2016-05-07T05:45:34.123Z,23776
2016-05-07T05:46:34.001Z,24000
2016-05-07T05:47:33.988Z,23776
2016-05-07T05:48:33.991Z,24704
2016-05-07T05:49:34.009Z,24832
2016-05-07T05:50:34.168Z,24320
2016-05-07T05:51:34.171Z,23712
2016-05-07T05:52:34.174Z,8984
2016-05-07T05:53:34.161Z,9664
2016-05-07T05:54:33.866Z,11288
2016-05-07T05:55:34.182Z,11080
2016-05-07T05:56:34.185Z,12328
2016-05-07T05:57:34.655Z,18560
2016-05-07T05:58:34.049Z,15976
2016-05-07T05:59:34.208Z,22560
2016-05-07T06:00:34.071Z,27296
2016-05-07T06:01:34.057Z,31200
2016-05-07T06:02:34.216Z,25120
2016-05-07T06:03:34.218Z,20608
2016-05-07T06:04:34.237Z,31648
2016-05-07T06:05:34.068Z,29504
2016-05-07T06:06:34.071Z,16584
2016-05-07T06:07:34.089Z,23968
2016-05-07T06:08:34.248Z,12928
2016-05-07T06:09:34.110Z,11100
2016-05-07T06:10:34.254Z,13248
2016-05-07T06:11:34.115Z,19872
2016-05-07T06:12:35.930Z,17140
2016-05-07T06:13:34.292Z,12088
2016-05-07T06:14:34.295Z,22080
2016-05-07T06:15:34.126Z,13620
2016-05-07T06:16:34.301Z,16296
2016-05-07T06:17:34.303Z,22208
2016-05-07T06:18:34.306Z,34944
2016-05-07T06:19:34.325Z,38496
2016-05-07T06:20:34.312Z,39968
2016-05-07T06:21:34.330Z,39296
2016-05-07T06:22:34.333Z,38112
2016-05-07T06:23:34.882Z,37760
2016-05-07T06:24:34.197Z,38016
2016-05-07T06:25:34.356Z,40928
2016-05-07T06:26:34.202Z,42016
2016-05-07T06:27:34.361Z,41600
2016-05-07T06:28:34.364Z,44032
2016-05-07T06:29:34.241Z,45952
2016-05-07T06:30:34.369Z,42816
2016-05-07T06:31:34.387Z,39456
2016-05-07T06:32:34.390Z,37312
2016-05-07T06:33:34.394Z,37120
2016-05-07T06:34:34.412Z,35040
2016-05-07T06:35:34.414Z,35328
2016-05-07T06:36:34.418Z,36320
2016-05-07T06:37:34.420Z,33600
2016-05-07T06:38:34.438Z,28288
2016-05-07T06:39:34.456Z,28160
2016-05-07T06:40:34.287Z,31328
2016-05-07T06:41:34.306Z,35552
2016-05-07T06:42:36.511Z,30176
2016-05-07T06:43:34.467Z,24800
2016-05-07T06:44:34.469Z,24864
2016-05-07T06:45:34.488Z,25664
2016-05-07T06:46:34.506Z,25280
2016-05-07T06:47:34.494Z,25536
2016-05-07T06:48:34.512Z,26624
2016-05-07T06:49:34.514Z,30144
2016-05-07T06:50:34.533Z,31904
2016-05-07T06:51:34.380Z,34880
2016-05-07T06:52:34.538Z,36992
2016-05-07T06:53:34.556Z,40000
2016-05-07T06:54:34.403Z,43200
2016-05-07T06:55:34.561Z,44128
2016-05-07T06:56:34.580Z,44640
2016-05-07T06:57:35.051Z,44960
2016-05-07T06:58:34.586Z,46432
2016-05-07T06:59:34.291Z,46496
2016-05-07T07:00:34.606Z,46048
2016-05-07T07:01:34.624Z,44800
2016-05-07T07:02:34.627Z,45984
2016-05-07T07:03:34.490Z,45664
2016-05-07T07:04:34.633Z,42976
2016-05-07T07:05:34.651Z,42272
2016-05-07T07:06:34.654Z,44192
2016-05-07T07:07:34.500Z,44704
2016-05-07T07:08:34.691Z,45504
2016-05-07T07:09:34.693Z,45408
2016-05-07T07:10:34.695Z,43392
2016-05-07T07:11:34.559Z,44384
2016-05-07T07:12:34.420Z,44128
2016-05-07T07:13:34.720Z,38848
2016-05-07T07:14:34.769Z,39744
2016-05-07T07:15:34.740Z,41952
2016-05-07T07:16:34.586Z,41504
2016-05-07T07:17:34.762Z,41952
2016-05-07T07:18:34.453Z,43488
2016-05-07T07:19:34.767Z,44064
2016-05-07T07:20:34.785Z,44512
2016-05-07T07:21:34.631Z,44672
2016-05-07T07:22:34.791Z,43648
2016-05-07T07:23:34.669Z,45056
2016-05-07T07:24:34.828Z,45856
2016-05-07T07:25:34.830Z,45024
2016-05-07T07:26:34.833Z,44064
2016-05-07T07:27:35.226Z,46848
2016-05-07T07:28:34.869Z,44288
2016-05-07T07:29:34.871Z,44832
2016-05-07T07:30:34.875Z,46784
2016-05-07T07:31:34.894Z,48960
2016-05-07T07:32:34.896Z,50080
2016-05-07T07:33:34.742Z,48864
2016-05-07T07:34:34.916Z,47392
2016-05-07T07:35:34.779Z,46656
2016-05-07T07:36:34.938Z,47008
2016-05-07T07:37:34.800Z,46848
2016-05-07T07:38:34.802Z,48480
2016-05-07T07:39:34.962Z,48416
2016-05-07T07:40:34.823Z,46880
2016-05-07T07:41:34.998Z,48256
2016-05-07T07:42:36.517Z,49152
2016-05-07T07:43:34.848Z,49984
2016-05-07T07:44:35.006Z,50784
2016-05-07T07:45:34.868Z,50464
2016-05-07T07:46:34.886Z,52768
2016-05-07T07:47:34.889Z,52416
2016-05-07T07:48:34.751Z,52896
2016-05-07T07:49:35.051Z,51136
2016-05-07T07:50:35.100Z,49696
2016-05-07T07:51:35.087Z,49184
2016-05-07T07:52:35.089Z,47936
2016-05-07T07:53:35.140Z,48000
2016-05-07T07:54:35.127Z,48832
2016-05-07T07:55:35.130Z,47264
2016-05-07T07:56:34.836Z,42656
2016-05-07T07:57:36.525Z,45088
2016-05-07T07:58:35.153Z,46688
2016-05-07T07:59:35.171Z,46912
2016-05-07T08:00:35.174Z,47584
2016-05-07T08:01:35.021Z,47712
2016-05-07T08:02:35.367Z,47392
2016-05-07T08:03:35.213Z,45760
2016-05-07T08:04:34.919Z,45152
2016-05-07T08:05:35.234Z,48224
2016-05-07T08:06:35.269Z,47776
2016-05-07T08:07:35.255Z,45824
2016-05-07T08:08:35.102Z,46496
2016-05-07T08:09:35.276Z,47168
2016-05-07T08:10:35.123Z,44736
2016-05-07T08:11:35.298Z,43712
2016-05-07T08:12:35.347Z,43456
2016-05-07T08:13:35.303Z,45984
2016-05-07T08:14:35.321Z,45984
2016-05-07T08:15:35.339Z,45376
2016-05-07T08:16:35.343Z,46080
2016-05-07T08:17:35.345Z,45088
2016-05-07T08:18:35.363Z,44544
2016-05-07T08:19:35.366Z,46880
2016-05-07T08:20:35.384Z,44768
2016-05-07T08:21:35.387Z,43456
2016-05-07T08:22:35.406Z,39200
2016-05-07T08:23:35.252Z,25088
2016-05-07T08:24:35.410Z,10284
2016-05-07T08:25:35.444Z,7384
2016-05-07T08:26:35.432Z,7116
2016-05-07T08:27:36.544Z,6960
2016-05-07T08:28:35.468Z,6840
2016-05-07T08:29:35.476Z,6736
2016-05-07T08:30:35.536Z,6652
2016-05-07T08:31:35.427Z,6572
2016-05-07T08:32:35.488Z,6476
2016-05-07T08:33:35.534Z,6404
2016-05-07T08:34:35.576Z,6340
2016-05-07T08:35:35.750Z,6272
2016-05-07T08:36:35.628Z,6208
2016-05-07T08:37:35.646Z,6156
2016-05-07T08:38:35.820Z,6096
2016-05-07T08:39:35.696Z,6044
2016-05-07T08:40:35.861Z,5996
2016-05-07T08:41:35.869Z,5948
2016-05-07T08:42:35.769Z,5904
2016-05-07T08:43:35.917Z,5852
2016-05-07T08:44:35.769Z,5808
2016-05-07T08:45:35.946Z,5764
2016-05-07T08:46:35.810Z,5712
2016-05-07T08:47:35.971Z,5664
2016-05-07T08:48:35.975Z,5596
2016-05-07T08:49:35.824Z,5552
2016-05-07T08:50:35.999Z,5508
2016-05-07T08:51:35.987Z,5456
2016-05-07T08:52:36.006Z,5408
2016-05-07T08:53:36.009Z,5364
2016-05-07T08:54:36.028Z,5324
2016-05-07T08:55:36.047Z,5276
2016-05-07T08:56:36.051Z,5232
2016-05-07T08:57:36.913Z,5188
2016-05-07T08:58:36.072Z,5144
2016-05-07T08:59:36.091Z,5096
2016-05-07T09:00:36.077Z,4808
2016-05-07T09:01:36.096Z,1460
2016-05-07T09:02:35.943Z,1452
2016-05-07T09:03:36.101Z,1444
2016-05-07T09:04:36.120Z,1432
2016-05-07T09:05:35.951Z,1428
2016-05-07T09:06:35.813Z,1424
2016-05-07T09:07:36.143Z,1416
2016-05-07T09:08:36.146Z,1408
2016-05-07T09:09:36.165Z,1396
2016-05-07T09:10:36.011Z,1392
2016-05-07T09:11:36.170Z,1388
2016-05-07T09:12:36.048Z,1364
2016-05-07T09:13:36.034Z,1372
2016-05-07T09:14:36.179Z,1372
2016-05-07T09:15:36.181Z,1368
2016-05-07T09:16:36.059Z,1356
2016-05-07T09:17:36.045Z,1352
2016-05-07T09:18:36.220Z,1344
2016-05-07T09:19:36.223Z,1336
2016-05-07T09:20:36.257Z,1328
2016-05-07T09:21:36.087Z,1312
2016-05-07T09:22:36.246Z,1316
2016-05-07T09:23:36.250Z,1312
2016-05-07T09:24:36.252Z,1300
2016-05-07T09:25:36.098Z,1292
2016-05-07T09:26:36.258Z,1280
2016-05-07T09:27:36.713Z,1268
2016-05-07T09:28:36.278Z,1248
2016-05-07T09:29:36.281Z,1232
2016-05-07T09:30:36.283Z,1220
2016-05-07T09:31:36.161Z,1204
2016-05-07T09:32:36.179Z,1188
2016-05-07T09:33:36.307Z,1172
2016-05-07T09:34:36.325Z,1160
2016-05-07T09:35:36.328Z,1148
2016-05-07T09:36:36.331Z,1136
2016-05-07T09:37:36.333Z,1124
2016-05-07T09:38:36.196Z,1112
2016-05-07T09:39:36.354Z,1100
2016-05-07T09:40:36.201Z,1088
2016-05-07T09:41:36.204Z,1080
2016-05-07T09:42:36.066Z,1072
2016-05-07T09:43:36.209Z,1064
2016-05-07T09:44:36.384Z,1056
2016-05-07T09:45:36.387Z,1052
2016-05-07T09:46:36.405Z,1044
2016-05-07T09:47:36.407Z,1040
2016-05-07T09:48:36.410Z,1040
2016-05-07T09:49:36.256Z,1032
2016-05-07T09:50:36.259Z,1036
2016-05-07T09:51:36.418Z,1032
2016-05-07T09:52:36.421Z,1024
2016-05-07T09:53:36.283Z,1020
2016-05-07T09:54:36.426Z,1020
2016-05-07T09:55:36.444Z,1016
2016-05-07T09:56:36.292Z,1012
2016-05-07T09:57:36.606Z,1004
2016-05-07T09:58:36.453Z,1004
2016-05-07T09:59:36.486Z,1004
2016-05-07T10:00:36.474Z,1000
2016-05-07T10:01:36.461Z,1000
2016-05-07T10:02:36.495Z,992
2016-05-07T10:03:36.482Z,992
2016-05-07T10:04:36.485Z,992
2016-05-07T10:05:36.488Z,988
2016-05-07T10:06:36.349Z,984
2016-05-07T10:07:36.493Z,980
2016-05-07T10:08:36.496Z,980
2016-05-07T10:09:36.498Z,980
2016-05-07T10:10:36.360Z,972
2016-05-07T10:11:36.519Z,976
2016-05-07T10:12:37.162Z,972
2016-05-07T10:13:36.540Z,972
2016-05-07T10:14:36.387Z,968
2016-05-07T10:15:36.373Z,964
2016-05-07T10:16:36.548Z,968
2016-05-07T10:17:36.535Z,964
2016-05-07T10:18:36.569Z,960
2016-05-07T10:19:36.540Z,960
2016-05-07T10:20:36.559Z,960
2016-05-07T10:21:36.406Z,960
2016-05-07T10:22:36.564Z,956
2016-05-07T10:23:36.566Z,952
2016-05-07T10:24:36.584Z,952
2016-05-07T10:25:36.417Z,952
2016-05-07T10:26:36.419Z,948
2016-05-07T10:27:36.796Z,944
2016-05-07T10:28:36.592Z,944
2016-05-07T10:29:36.594Z,948
2016-05-07T10:30:36.455Z,944
2016-05-07T10:31:36.615Z,944
2016-05-07T10:32:36.617Z,944
2016-05-07T10:33:36.636Z,940
2016-05-07T10:34:36.607Z,936
2016-05-07T10:35:36.626Z,940
2016-05-07T10:36:36.628Z,936
2016-05-07T10:37:36.474Z,936
2016-05-07T10:38:36.650Z,932
2016-05-07T10:39:36.636Z,932
2016-05-07T10:40:36.654Z,928
2016-05-07T10:41:36.657Z,928
2016-05-07T10:42:36.488Z,928
2016-05-07T10:43:36.663Z,924
2016-05-07T10:44:36.665Z,924
2016-05-07T10:45:36.668Z,920
2016-05-07T10:46:36.671Z,916
2016-05-07T10:47:36.360Z,916
2016-05-07T10:48:36.535Z,916
2016-05-07T10:49:36.679Z,912
2016-05-07T10:50:36.526Z,916
2016-05-07T10:51:36.699Z,912
2016-05-07T10:52:36.718Z,908
2016-05-07T10:53:36.721Z,908
2016-05-07T10:54:36.723Z,908
2016-05-07T10:55:36.710Z,900
2016-05-07T10:56:36.572Z,904
2016-05-07T10:57:36.310Z,900
2016-05-07T10:58:36.734Z,900
2016-05-07T10:59:36.720Z,896
2016-05-07T11:00:36.724Z,892
2016-05-07T11:01:36.586Z,892
2016-05-07T11:02:36.744Z,892
2016-05-07T11:03:36.591Z,888
2016-05-07T11:04:36.595Z,888
2016-05-07T11:05:36.753Z,884
2016-05-07T11:06:36.755Z,880
2016-05-07T11:07:36.743Z,880
2016-05-07T11:08:36.761Z,880
2016-05-07T11:09:36.779Z,880
2016-05-07T11:10:36.766Z,876
2016-05-07T11:11:36.769Z,876
2016-05-07T11:12:36.788Z,872
2016-05-07T11:13:36.618Z,872
2016-05-07T11:14:36.480Z,868
2016-05-07T11:15:36.796Z,872
2016-05-07T11:16:36.641Z,868
2016-05-07T11:17:36.801Z,868
2016-05-07T11:18:36.804Z,864
2016-05-07T11:19:36.650Z,868
2016-05-07T11:20:36.809Z,864
2016-05-07T11:21:36.671Z,864
2016-05-07T11:22:37.079Z,864
2016-05-07T11:23:37.129Z,860
2016-05-07T11:24:36.835Z,860
2016-05-07T11:25:36.823Z,860
2016-05-07T11:26:36.668Z,856
2016-05-07T11:27:38.296Z,852
2016-05-07T11:28:36.846Z,852
2016-05-07T11:29:36.833Z,852
2016-05-07T11:30:36.836Z,852
2016-05-07T11:31:36.854Z,848
2016-05-07T11:32:36.856Z,844
2016-05-07T11:33:36.860Z,844
2016-05-07T11:34:36.722Z,840
2016-05-07T11:35:36.881Z,840
2016-05-07T11:36:36.555Z,840
2016-05-07T11:37:36.729Z,836
2016-05-07T11:38:36.889Z,840
2016-05-07T11:39:36.578Z,840
2016-05-07T11:40:36.878Z,832
2016-05-07T11:41:36.896Z,832
2016-05-07T11:42:36.744Z,816
2016-05-07T11:43:36.902Z,824
2016-05-07T11:44:36.920Z,828
2016-05-07T11:45:36.752Z,824
2016-05-07T11:46:36.738Z,828
2016-05-07T11:47:36.757Z,824
2016-05-07T11:48:36.774Z,824
2016-05-07T11:49:36.762Z,820
2016-05-07T11:50:36.937Z,816
2016-05-07T11:51:36.768Z,812
2016-05-07T11:52:36.926Z,816
2016-05-07T11:53:36.929Z,812
2016-05-07T11:54:36.791Z,820
2016-05-07T11:55:36.637Z,812
2016-05-07T11:56:36.796Z,812
2016-05-07T11:57:36.673Z,808
2016-05-07T11:58:36.959Z,804
2016-05-07T11:59:36.804Z,800
2016-05-07T12:00:36.635Z,800
2016-05-07T12:01:36.809Z,800
2016-05-07T12:02:36.812Z,796
2016-05-07T12:03:36.972Z,800
2016-05-07T12:04:36.817Z,796
2016-05-07T12:05:36.977Z,800
2016-05-07T12:06:36.823Z,800
2016-05-07T12:07:36.983Z,796
2016-05-07T12:08:37.000Z,796
2016-05-07T12:09:36.988Z,800
2016-05-07T12:10:36.991Z,792
2016-05-07T12:11:36.868Z,788
2016-05-07T12:12:36.839Z,792
2016-05-07T12:13:36.999Z,788
2016-05-07T12:14:37.016Z,788
2016-05-07T12:15:36.847Z,784
2016-05-07T12:16:36.866Z,784
2016-05-07T12:17:37.024Z,788
2016-05-07T12:18:37.012Z,784
2016-05-07T12:19:36.718Z,784
2016-05-07T12:20:36.721Z,792
2016-05-07T12:21:37.035Z,788
2016-05-07T12:22:37.038Z,776
2016-05-07T12:23:37.041Z,776
2016-05-07T12:24:37.059Z,776
2016-05-07T12:25:36.890Z,772
2016-05-07T12:26:36.892Z,772
2016-05-07T12:27:37.552Z,776
2016-05-07T12:28:37.070Z,776
2016-05-07T12:29:37.057Z,772
2016-05-07T12:30:37.059Z,768
2016-05-07T12:31:37.047Z,772
2016-05-07T12:32:36.909Z,768
2016-05-07T12:33:37.067Z,772
2016-05-07T12:34:36.915Z,772
2016-05-07T12:35:36.932Z,764
2016-05-07T12:36:37.092Z,764
2016-05-07T12:37:37.094Z,772
2016-05-07T12:38:37.097Z,768
2016-05-07T12:39:36.943Z,764
2016-05-07T12:40:37.103Z,768
2016-05-07T12:41:36.949Z,764
2016-05-07T12:42:37.795Z,760
2016-05-07T12:43:37.125Z,764
2016-05-07T12:44:37.113Z,768
2016-05-07T12:45:37.131Z,744
2016-05-07T12:46:37.134Z,756
2016-05-07T12:47:37.121Z,756
2016-05-07T12:48:36.968Z,756
2016-05-07T12:49:37.142Z,756
2016-05-07T12:50:37.129Z,760
2016-05-07T12:51:37.116Z,768
2016-05-07T12:52:36.978Z,760
2016-05-07T12:53:37.137Z,760
2016-05-07T12:54:36.967Z,764
2016-05-07T12:55:37.143Z,760
2016-05-07T12:56:37.160Z,764
2016-05-07T12:57:37.148Z,764
2016-05-07T12:58:37.166Z,772
2016-05-07T12:59:37.060Z,748
2016-05-07T13:00:37.156Z,772
2016-05-07T13:01:37.174Z,768
2016-05-07T13:02:37.177Z,756
2016-05-07T13:03:37.179Z,756
2016-05-07T13:04:37.182Z,760
2016-05-07T13:05:37.028Z,764
2016-05-07T13:06:37.031Z,768
2016-05-07T13:07:37.206Z,772
2016-05-07T13:08:37.036Z,764
2016-05-07T13:09:37.195Z,772
2016-05-07T13:10:37.198Z,780
2016-05-07T13:11:37.217Z,788
2016-05-07T13:12:37.391Z,788
2016-05-07T13:13:37.206Z,780
2016-05-07T13:14:37.208Z,780
2016-05-07T13:15:37.197Z,776
2016-05-07T13:16:37.214Z,772
2016-05-07T13:17:37.216Z,772
2016-05-07T13:18:37.204Z,776
2016-05-07T13:19:37.222Z,780
2016-05-07T13:20:37.225Z,776
2016-05-07T13:21:37.087Z,784
2016-05-07T13:22:37.230Z,780
2016-05-07T13:23:37.233Z,788
2016-05-07T13:24:37.235Z,796
2016-05-07T13:25:37.098Z,792
2016-05-07T13:26:37.257Z,792
2016-05-07T13:27:37.385Z,796
2016-05-07T13:28:37.246Z,800
2016-05-07T13:29:37.265Z,816
2016-05-07T13:30:37.111Z,788
2016-05-07T13:31:36.942Z,800
2016-05-07T13:32:37.101Z,796
2016-05-07T13:33:37.104Z,804
2016-05-07T13:34:37.278Z,808
2016-05-07T13:35:37.281Z,804
2016-05-07T13:36:37.284Z,808
2016-05-07T13:37:37.287Z,820
2016-05-07T13:38:37.133Z,816
2016-05-07T13:39:37.136Z,816
2016-05-07T13:40:37.295Z,820
2016-05-07T13:41:37.141Z,820
2016-05-07T13:42:37.144Z,812